RJNH(METAR)
01/23 10:00
METAR RJNH 230100Z 06006KT 8000 -RA FEW020 SCT035 BKN045 10/09 Q1017
RMK 1CU020 3SC035 6SC045 A3005=
戻る
トップページへ戻る
IMOC Co,.Ltd.